sensor_id;sensor_type;location;lat;lon;timestamp;P1;durP1;ratioP1;P2;durP2;ratioP2
51925;SDS011;37952;51.938;15.480;2023-11-22T00:02:41;5.80;;;5.30;;
51925;SDS011;37952;51.938;15.480;2023-11-22T00:05:42;5.70;;;5.20;;
51925;SDS011;37952;51.938;15.480;2023-11-22T00:08:44;6.00;;;5.50;;
51925;SDS011;37952;51.938;15.480;2023-11-22T00:11:45;8.60;;;6.50;;
51925;SDS011;37952;51.938;15.480;2023-11-22T00:14:47;5.40;;;5.00;;
51925;SDS011;37952;51.938;15.480;2023-11-22T00:17:49;6.10;;;5.50;;
51925;SDS011;37952;51.938;15.480;2023-11-22T00:20:50;6.20;;;5.60;;
51925;SDS011;37952;51.938;15.480;2023-11-22T00:23:52;7.80;;;7.00;;
51925;SDS011;37952;51.938;15.480;2023-11-22T00:26:54;6.70;;;5.50;;
51925;SDS011;37952;51.938;15.480;2023-11-22T00:29:55;5.50;;;5.10;;
51925;SDS011;37952;51.938;15.480;2023-11-22T00:33:00;5.90;;;5.20;;
51925;SDS011;37952;51.938;15.480;2023-11-22T00:36:01;7.20;;;6.30;;
51925;SDS011;37952;51.938;15.480;2023-11-22T00:39:05;6.00;;;5.40;;
51925;SDS011;37952;51.938;15.480;2023-11-22T00:42:07;6.50;;;5.20;;
51925;SDS011;37952;51.938;15.480;2023-11-22T00:45:10;6.30;;;5.50;;
51925;SDS011;37952;51.938;15.480;2023-11-22T00:48:11;5.90;;;4.90;;
51925;SDS011;37952;51.938;15.480;2023-11-22T00:51:13;5.30;;;4.80;;
51925;SDS011;37952;51.938;15.480;2023-11-22T00:54:15;5.40;;;5.00;;
51925;SDS011;37952;51.938;15.480;2023-11-22T00:57:17;5.60;;;5.10;;
51925;SDS011;37952;51.938;15.480;2023-11-22T01:00:18;7.50;;;6.50;;
51925;SDS011;37952;51.938;15.480;2023-11-22T01:03:20;5.50;;;5.10;;
51925;SDS011;37952;51.938;15.480;2023-11-22T01:06:22;6.00;;;5.50;;
51925;SDS011;37952;51.938;15.480;2023-11-22T01:09:24;14.80;;;5.90;;
51925;SDS011;37952;51.938;15.480;2023-11-22T01:12:26;8.80;;;7.10;;
51925;SDS011;37952;51.938;15.480;2023-11-22T01:15:28;6.20;;;5.40;;
51925;SDS011;37952;51.938;15.480;2023-11-22T01:18:29;3.30;;;3.10;;
51925;SDS011;37952;51.938;15.480;2023-11-22T01:21:31;6.10;;;5.50;;
51925;SDS011;37952;51.938;15.480;2023-11-22T01:24:33;13.80;;;8.00;;
51925;SDS011;37952;51.938;15.480;2023-11-22T01:27:35;6.40;;;5.70;;
51925;SDS011;37952;51.938;15.480;2023-11-22T01:30:37;3.90;;;3.60;;
51925;SDS011;37952;51.938;15.480;2023-11-22T01:33:40;7.20;;;5.00;;
51925;SDS011;37952;51.938;15.480;2023-11-22T01:36:42;9.40;;;6.80;;
51925;SDS011;37952;51.938;15.480;2023-11-22T01:39:47;6.00;;;5.40;;
51925;SDS011;37952;51.938;15.480;2023-11-22T01:42:50;4.60;;;3.60;;
51925;SDS011;37952;51.938;15.480;2023-11-22T01:45:51;5.80;;;5.30;;
51925;SDS011;37952;51.938;15.480;2023-11-22T01:48:53;7.40;;;5.80;;
51925;SDS011;37952;51.938;15.480;2023-11-22T01:51:55;5.60;;;5.10;;
51925;SDS011;37952;51.938;15.480;2023-11-22T01:54:57;6.30;;;5.80;;
51925;SDS011;37952;51.938;15.480;2023-11-22T01:57:59;6.90;;;5.60;;
51925;SDS011;37952;51.938;15.480;2023-11-22T02:01:03;9.30;;;6.50;;
51925;SDS011;37952;51.938;15.480;2023-11-22T02:04:05;5.20;;;4.80;;
51925;SDS011;37952;51.938;15.480;2023-11-22T02:07:08;5.80;;;4.70;;
51925;SDS011;37952;51.938;15.480;2023-11-22T02:10:10;7.30;;;5.50;;
51925;SDS011;37952;51.938;15.480;2023-11-22T02:13:11;6.30;;;5.80;;
51925;SDS011;37952;51.938;15.480;2023-11-22T02:16:13;7.50;;;5.90;;
51925;SDS011;37952;51.938;15.480;2023-11-22T02:19:15;4.40;;;4.10;;
51925;SDS011;37952;51.938;15.480;2023-11-22T02:22:18;2.60;;;2.50;;
51925;SDS011;37952;51.938;15.480;2023-11-22T02:25:20;10.40;;;6.10;;
51925;SDS011;37952;51.938;15.480;2023-11-22T02:28:22;6.60;;;5.10;;
51925;SDS011;37952;51.938;15.480;2023-11-22T02:31:27;4.80;;;4.40;;
51925;SDS011;37952;51.938;15.480;2023-11-22T02:34:29;5.40;;;4.70;;
51925;SDS011;37952;51.938;15.480;2023-11-22T02:37:30;7.10;;;6.40;;
51925;SDS011;37952;51.938;15.480;2023-11-22T02:40:32;6.60;;;6.00;;
51925;SDS011;37952;51.938;15.480;2023-11-22T02:43:34;5.40;;;4.90;;
51925;SDS011;37952;51.938;15.480;2023-11-22T02:46:36;6.70;;;4.90;;
51925;SDS011;37952;51.938;15.480;2023-11-22T02:49:38;5.30;;;4.80;;
51925;SDS011;37952;51.938;15.480;2023-11-22T02:52:40;5.70;;;5.30;;
51925;SDS011;37952;51.938;15.480;2023-11-22T02:55:43;9.00;;;5.60;;
51925;SDS011;37952;51.938;15.480;2023-11-22T02:58:44;4.40;;;4.00;;
51925;SDS011;37952;51.938;15.480;2023-11-22T03:01:47;4.30;;;3.90;;
51925;SDS011;37952;51.938;15.480;2023-11-22T03:04:48;5.40;;;4.80;;
51925;SDS011;37952;51.938;15.480;2023-11-22T03:07:50;7.70;;;5.60;;
51925;SDS011;37952;51.938;15.480;2023-11-22T03:10:52;6.50;;;5.80;;
51925;SDS011;37952;51.938;15.480;2023-11-22T03:13:54;2.10;;;2.00;;
51925;SDS011;37952;51.938;15.480;2023-11-22T03:16:56;5.30;;;4.60;;
51925;SDS011;37952;51.938;15.480;2023-11-22T03:19:59;5.30;;;5.00;;
51925;SDS011;37952;51.938;15.480;2023-11-22T03:23:01;8.90;;;6.10;;
51925;SDS011;37952;51.938;15.480;2023-11-22T03:26:04;5.90;;;4.20;;
51925;SDS011;37952;51.938;15.480;2023-11-22T03:29:06;3.40;;;2.90;;
51925;SDS011;37952;51.938;15.480;2023-11-22T03:32:10;4.70;;;4.40;;
51925;SDS011;37952;51.938;15.480;2023-11-22T03:35:13;5.30;;;4.80;;
51925;SDS011;37952;51.938;15.480;2023-11-22T03:38:14;5.30;;;4.80;;
51925;SDS011;37952;51.938;15.480;2023-11-22T03:41:16;5.40;;;4.90;;
51925;SDS011;37952;51.938;15.480;2023-11-22T03:44:22;4.90;;;4.50;;
51925;SDS011;37952;51.938;15.480;2023-11-22T03:47:23;4.60;;;4.20;;
51925;SDS011;37952;51.938;15.480;2023-11-22T03:50:25;6.10;;;5.10;;
51925;SDS011;37952;51.938;15.480;2023-11-22T03:53:27;6.00;;;5.50;;
51925;SDS011;37952;51.938;15.480;2023-11-22T03:56:29;5.80;;;5.20;;
51925;SDS011;37952;51.938;15.480;2023-11-22T03:59:30;4.80;;;4.30;;
51925;SDS011;37952;51.938;15.480;2023-11-22T04:02:32;4.70;;;4.50;;
51925;SDS011;37952;51.938;15.480;2023-11-22T04:05:34;4.70;;;4.30;;
51925;SDS011;37952;51.938;15.480;2023-11-22T04:08:36;6.20;;;4.80;;
51925;SDS011;37952;51.938;15.480;2023-11-22T04:11:39;6.30;;;5.30;;
51925;SDS011;37952;51.938;15.480;2023-11-22T04:14:41;4.80;;;4.50;;
51925;SDS011;37952;51.938;15.480;2023-11-22T04:17:43;4.80;;;4.50;;
51925;SDS011;37952;51.938;15.480;2023-11-22T04:20:45;4.60;;;4.30;;
51925;SDS011;37952;51.938;15.480;2023-11-22T04:23:48;5.70;;;3.50;;
51925;SDS011;37952;51.938;15.480;2023-11-22T04:26:49;4.70;;;4.30;;
51925;SDS011;37952;51.938;15.480;2023-11-22T04:29:50;4.80;;;4.40;;
51925;SDS011;37952;51.938;15.480;2023-11-22T04:32:52;4.50;;;4.10;;
51925;SDS011;37952;51.938;15.480;2023-11-22T04:35:54;4.70;;;4.40;;
51925;SDS011;37952;51.938;15.480;2023-11-22T04:38:56;7.50;;;5.40;;
51925;SDS011;37952;51.938;15.480;2023-11-22T04:41:58;8.40;;;5.90;;
51925;SDS011;37952;51.938;15.480;2023-11-22T04:44:59;4.50;;;4.20;;
51925;SDS011;37952;51.938;15.480;2023-11-22T04:48:01;4.40;;;4.20;;
51925;SDS011;37952;51.938;15.480;2023-11-22T04:51:02;5.40;;;5.00;;
51925;SDS011;37952;51.938;15.480;2023-11-22T04:54:04;6.20;;;5.30;;
51925;SDS011;37952;51.938;15.480;2023-11-22T04:57:06;5.90;;;5.30;;
51925;SDS011;37952;51.938;15.480;2023-11-22T05:00:08;4.10;;;3.90;;
51925;SDS011;37952;51.938;15.480;2023-11-22T05:03:10;4.40;;;4.10;;
51925;SDS011;37952;51.938;15.480;2023-11-22T05:06:13;6.00;;;4.30;;
51925;SDS011;37952;51.938;15.480;2023-11-22T05:09:15;6.10;;;5.40;;
51925;SDS011;37952;51.938;15.480;2023-11-22T05:12:19;7.10;;;5.90;;
51925;SDS011;37952;51.938;15.480;2023-11-22T05:15:20;6.10;;;5.60;;
51925;SDS011;37952;51.938;15.480;2023-11-22T05:18:22;5.80;;;4.80;;
51925;SDS011;37952;51.938;15.480;2023-11-22T05:21:23;5.20;;;4.80;;
51925;SDS011;37952;51.938;15.480;2023-11-22T05:24:25;11.20;;;6.10;;
51925;SDS011;37952;51.938;15.480;2023-11-22T05:27:27;10.50;;;6.10;;
51925;SDS011;37952;51.938;15.480;2023-11-22T05:30:30;4.90;;;4.20;;
51925;SDS011;37952;51.938;15.480;2023-11-22T05:33:31;4.50;;;4.20;;
51925;SDS011;37952;51.938;15.480;2023-11-22T05:36:34;5.50;;;5.00;;
51925;SDS011;37952;51.938;15.480;2023-11-22T05:39:35;7.70;;;5.60;;
51925;SDS011;37952;51.938;15.480;2023-11-22T05:42:38;8.20;;;4.70;;
51925;SDS011;37952;51.938;15.480;2023-11-22T05:45:39;5.00;;;4.30;;
51925;SDS011;37952;51.938;15.480;2023-11-22T05:48:41;5.80;;;4.50;;
51925;SDS011;37952;51.938;15.480;2023-11-22T05:51:42;4.90;;;4.50;;
51925;SDS011;37952;51.938;15.480;2023-11-22T05:54:44;3.90;;;3.50;;
51925;SDS011;37952;51.938;15.480;2023-11-22T05:57:46;5.80;;;5.30;;
51925;SDS011;37952;51.938;15.480;2023-11-22T06:00:47;4.70;;;4.30;;
51925;SDS011;37952;51.938;15.480;2023-11-22T06:03:49;5.10;;;4.60;;
51925;SDS011;37952;51.938;15.480;2023-11-22T06:06:51;5.00;;;4.50;;
51925;SDS011;37952;51.938;15.480;2023-11-22T06:09:52;13.10;;;8.10;;
51925;SDS011;37952;51.938;15.480;2023-11-22T06:12:54;9.70;;;6.70;;
51925;SDS011;37952;51.938;15.480;2023-11-22T06:15:56;9.90;;;8.70;;
51925;SDS011;37952;51.938;15.480;2023-11-22T06:18:57;11.40;;;9.20;;
51925;SDS011;37952;51.938;15.480;2023-11-22T06:21:59;13.20;;;10.00;;
51925;SDS011;37952;51.938;15.480;2023-11-22T06:25:02;20.70;;;13.00;;
51925;SDS011;37952;51.938;15.480;2023-11-22T06:28:05;26.40;;;15.40;;
51925;SDS011;37952;51.938;15.480;2023-11-22T06:31:07;13.30;;;10.10;;
51925;SDS011;37952;51.938;15.480;2023-11-22T06:34:09;11.90;;;9.90;;
51925;SDS011;37952;51.938;15.480;2023-11-22T06:37:10;15.70;;;10.90;;
51925;SDS011;37952;51.938;15.480;2023-11-22T06:40:12;13.20;;;9.30;;
51925;SDS011;37952;51.938;15.480;2023-11-22T06:43:14;14.20;;;8.30;;
51925;SDS011;37952;51.938;15.480;2023-11-22T06:46:16;7.70;;;6.90;;
51925;SDS011;37952;51.938;15.480;2023-11-22T06:49:17;6.70;;;6.10;;
51925;SDS011;37952;51.938;15.480;2023-11-22T06:52:20;9.30;;;7.50;;
51925;SDS011;37952;51.938;15.480;2023-11-22T06:55:21;14.50;;;7.80;;
51925;SDS011;37952;51.938;15.480;2023-11-22T06:58:23;18.30;;;9.10;;
51925;SDS011;37952;51.938;15.480;2023-11-22T07:01:25;8.80;;;7.70;;
51925;SDS011;37952;51.938;15.480;2023-11-22T07:04:27;10.00;;;7.70;;
51925;SDS011;37952;51.938;15.480;2023-11-22T07:07:30;12.50;;;8.00;;
51925;SDS011;37952;51.938;15.480;2023-11-22T07:16:42;6.00;;;5.50;;
51925;SDS011;37952;51.938;15.480;2023-11-22T07:19:44;6.40;;;5.70;;
51925;SDS011;37952;51.938;15.480;2023-11-22T07:22:49;8.10;;;7.30;;
51925;SDS011;37952;51.938;15.480;2023-11-22T07:25:56;19.70;;;7.00;;
51925;SDS011;37952;51.938;15.480;2023-11-22T07:28:57;13.30;;;8.40;;
51925;SDS011;37952;51.938;15.480;2023-11-22T07:31:59;7.80;;;7.00;;
51925;SDS011;37952;51.938;15.480;2023-11-22T07:35:00;11.00;;;7.20;;
51925;SDS011;37952;51.938;15.480;2023-11-22T07:38:04;11.60;;;7.40;;
51925;SDS011;37952;51.938;15.480;2023-11-22T07:41:06;18.10;;;8.60;;
51925;SDS011;37952;51.938;15.480;2023-11-22T07:44:08;12.80;;;8.80;;
51925;SDS011;37952;51.938;15.480;2023-11-22T07:47:14;7.20;;;6.40;;
51925;SDS011;37952;51.938;15.480;2023-11-22T07:50:17;5.50;;;4.90;;
51925;SDS011;37952;51.938;15.480;2023-11-22T07:53:18;7.20;;;6.50;;
51925;SDS011;37952;51.938;15.480;2023-11-22T07:56:20;9.40;;;7.00;;
51925;SDS011;37952;51.938;15.480;2023-11-22T07:59:22;8.80;;;7.90;;
51925;SDS011;37952;51.938;15.480;2023-11-22T08:02:23;6.60;;;6.00;;
51925;SDS011;37952;51.938;15.480;2023-11-22T08:05:26;6.20;;;5.40;;
51925;SDS011;37952;51.938;15.480;2023-11-22T08:08:29;6.80;;;6.30;;
51925;SDS011;37952;51.938;15.480;2023-11-22T08:11:31;12.30;;;6.60;;
51925;SDS011;37952;51.938;15.480;2023-11-22T08:14:37;9.70;;;7.90;;
51925;SDS011;37952;51.938;15.480;2023-11-22T08:17:39;6.10;;;5.60;;
51925;SDS011;37952;51.938;15.480;2023-11-22T08:20:42;7.50;;;6.20;;
51925;SDS011;37952;51.938;15.480;2023-11-22T08:23:47;8.80;;;6.50;;
51925;SDS011;37952;51.938;15.480;2023-11-22T08:26:49;10.10;;;7.00;;
51925;SDS011;37952;51.938;15.480;2023-11-22T08:32:53;6.50;;;6.00;;
51925;SDS011;37952;51.938;15.480;2023-11-22T08:35:56;6.50;;;5.90;;
51925;SDS011;37952;51.938;15.480;2023-11-22T08:39:02;7.30;;;6.40;;
51925;SDS011;37952;51.938;15.480;2023-11-22T08:42:05;7.60;;;6.90;;
51925;SDS011;37952;51.938;15.480;2023-11-22T08:45:10;8.50;;;7.60;;
51925;SDS011;37952;51.938;15.480;2023-11-22T08:48:13;8.10;;;6.40;;
51925;SDS011;37952;51.938;15.480;2023-11-22T08:51:16;6.50;;;5.90;;
51925;SDS011;37952;51.938;15.480;2023-11-22T08:54:19;7.00;;;5.90;;
51925;SDS011;37952;51.938;15.480;2023-11-22T08:57:20;9.20;;;6.50;;
51925;SDS011;37952;51.938;15.480;2023-11-22T09:00:22;13.90;;;8.70;;
51925;SDS011;37952;51.938;15.480;2023-11-22T09:03:24;6.40;;;6.00;;
51925;SDS011;37952;51.938;15.480;2023-11-22T09:06:26;7.00;;;5.90;;
51925;SDS011;37952;51.938;15.480;2023-11-22T09:09:27;7.50;;;6.70;;
51925;SDS011;37952;51.938;15.480;2023-11-22T09:12:32;8.60;;;7.00;;
51925;SDS011;37952;51.938;15.480;2023-11-22T09:15:33;9.20;;;7.10;;
51925;SDS011;37952;51.938;15.480;2023-11-22T09:18:36;8.10;;;6.80;;
51925;SDS011;37952;51.938;15.480;2023-11-22T09:21:39;7.70;;;6.60;;
51925;SDS011;37952;51.938;15.480;2023-11-22T09:27:42;10.20;;;7.30;;
51925;SDS011;37952;51.938;15.480;2023-11-22T09:30:48;14.00;;;8.40;;
51925;SDS011;37952;51.938;15.480;2023-11-22T09:33:50;6.70;;;6.00;;
51925;SDS011;37952;51.938;15.480;2023-11-22T09:36:52;10.50;;;5.70;;
51925;SDS011;37952;51.938;15.480;2023-11-22T09:39:55;9.70;;;7.40;;
51925;SDS011;37952;51.938;15.480;2023-11-22T09:43:00;11.50;;;8.20;;
51925;SDS011;37952;51.938;15.480;2023-11-22T09:46:03;15.40;;;8.50;;
51925;SDS011;37952;51.938;15.480;2023-11-22T09:49:06;7.90;;;7.10;;
51925;SDS011;37952;51.938;15.480;2023-11-22T09:52:12;8.80;;;6.80;;
51925;SDS011;37952;51.938;15.480;2023-11-22T09:55:23;9.60;;;7.60;;
51925;SDS011;37952;51.938;15.480;2023-11-22T09:58:30;11.50;;;8.70;;
51925;SDS011;37952;51.938;15.480;2023-11-22T10:01:34;11.30;;;8.40;;
51925;SDS011;37952;51.938;15.480;2023-11-22T10:04:38;8.50;;;6.90;;
51925;SDS011;37952;51.938;15.480;2023-11-22T10:07:39;6.30;;;5.40;;
51925;SDS011;37952;51.938;15.480;2023-11-22T10:10:41;7.20;;;6.50;;
51925;SDS011;37952;51.938;15.480;2023-11-22T10:13:51;9.10;;;7.00;;
51925;SDS011;37952;51.938;15.480;2023-11-22T10:17:02;9.70;;;6.90;;
51925;SDS011;37952;51.938;15.480;2023-11-22T10:20:04;5.70;;;5.20;;
51925;SDS011;37952;51.938;15.480;2023-11-22T10:23:13;7.50;;;6.40;;
51925;SDS011;37952;51.938;15.480;2023-11-22T10:26:16;7.10;;;6.40;;
51925;SDS011;37952;51.938;15.480;2023-11-22T10:29:18;9.70;;;7.30;;
51925;SDS011;37952;51.938;15.480;2023-11-22T10:32:20;7.60;;;6.60;;
51925;SDS011;37952;51.938;15.480;2023-11-22T10:35:22;4.60;;;4.40;;
51925;SDS011;37952;51.938;15.480;2023-11-22T10:38:24;7.70;;;6.50;;
51925;SDS011;37952;51.938;15.480;2023-11-22T10:41:27;7.60;;;6.90;;
51925;SDS011;37952;51.938;15.480;2023-11-22T10:44:28;9.40;;;7.10;;
51925;SDS011;37952;51.938;15.480;2023-11-22T10:47:30;7.30;;;6.70;;
51925;SDS011;37952;51.938;15.480;2023-11-22T10:50:35;5.60;;;5.10;;
51925;SDS011;37952;51.938;15.480;2023-11-22T10:53:40;6.60;;;5.60;;
51925;SDS011;37952;51.938;15.480;2023-11-22T10:56:49;6.40;;;5.60;;
51925;SDS011;37952;51.938;15.480;2023-11-22T10:59:56;10.30;;;7.20;;
51925;SDS011;37952;51.938;15.480;2023-11-22T11:03:08;9.10;;;6.70;;
51925;SDS011;37952;51.938;15.480;2023-11-22T11:06:15;9.10;;;7.30;;
51925;SDS011;37952;51.938;15.480;2023-11-22T11:09:22;6.40;;;5.80;;
51925;SDS011;37952;51.938;15.480;2023-11-22T11:12:28;6.40;;;5.80;;
51925;SDS011;37952;51.938;15.480;2023-11-22T11:15:29;6.80;;;8.30;;
51925;SDS011;37952;51.938;15.480;2023-11-22T11:18:31;7.10;;;6.40;;
51925;SDS011;37952;51.938;15.480;2023-11-22T11:21:34;5.70;;;5.30;;
51925;SDS011;37952;51.938;15.480;2023-11-22T11:24:39;8.00;;;6.20;;
51925;SDS011;37952;51.938;15.480;2023-11-22T11:27:41;7.60;;;6.90;;
51925;SDS011;37952;51.938;15.480;2023-11-22T11:30:44;7.70;;;7.00;;
51925;SDS011;37952;51.938;15.480;2023-11-22T11:36:52;9.50;;;6.90;;
51925;SDS011;37952;51.938;15.480;2023-11-22T11:39:57;5.90;;;4.50;;
51925;SDS011;37952;51.938;15.480;2023-11-22T11:43:00;8.50;;;5.70;;
51925;SDS011;37952;51.938;15.480;2023-11-22T11:46:01;6.30;;;5.70;;
51925;SDS011;37952;51.938;15.480;2023-11-22T11:49:05;8.40;;;4.40;;
51925;SDS011;37952;51.938;15.480;2023-11-22T11:52:11;6.90;;;6.30;;
51925;SDS011;37952;51.938;15.480;2023-11-22T11:55:14;6.60;;;6.10;;
51925;SDS011;37952;51.938;15.480;2023-11-22T11:58:16;6.50;;;5.40;;
51925;SDS011;37952;51.938;15.480;2023-11-22T12:01:19;4.40;;;4.10;;
51925;SDS011;37952;51.938;15.480;2023-11-22T12:04:24;6.70;;;6.10;;
51925;SDS011;37952;51.938;15.480;2023-11-22T12:07:25;6.70;;;6.00;;
51925;SDS011;37952;51.938;15.480;2023-11-22T12:10:27;7.80;;;6.60;;
51925;SDS011;37952;51.938;15.480;2023-11-22T12:13:28;6.60;;;5.80;;
51925;SDS011;37952;51.938;15.480;2023-11-22T12:16:30;8.40;;;7.50;;
51925;SDS011;37952;51.938;15.480;2023-11-22T12:19:32;7.00;;;6.30;;
51925;SDS011;37952;51.938;15.480;2023-11-22T12:22:35;6.00;;;5.50;;
51925;SDS011;37952;51.938;15.480;2023-11-22T12:25:37;8.50;;;7.50;;
51925;SDS011;37952;51.938;15.480;2023-11-22T12:28:39;14.00;;;7.80;;
51925;SDS011;37952;51.938;15.480;2023-11-22T12:31:47;8.60;;;7.60;;
51925;SDS011;37952;51.938;15.480;2023-11-22T12:34:56;9.40;;;7.60;;
51925;SDS011;37952;51.938;15.480;2023-11-22T12:37:58;8.00;;;7.20;;
51925;SDS011;37952;51.938;15.480;2023-11-22T12:41:01;6.20;;;5.60;;
51925;SDS011;37952;51.938;15.480;2023-11-22T12:44:07;6.90;;;5.90;;
51925;SDS011;37952;51.938;15.480;2023-11-22T12:47:10;7.30;;;6.60;;
51925;SDS011;37952;51.938;15.480;2023-11-22T12:50:28;8.40;;;7.70;;
51925;SDS011;37952;51.938;15.480;2023-11-22T12:53:36;10.60;;;7.70;;
51925;SDS011;37952;51.938;15.480;2023-11-22T12:56:38;6.90;;;6.30;;
51925;SDS011;37952;51.938;15.480;2023-11-22T12:59:41;10.00;;;8.00;;
51925;SDS011;37952;51.938;15.480;2023-11-22T13:02:43;6.70;;;6.10;;
51925;SDS011;37952;51.938;15.480;2023-11-22T13:06:01;5.20;;;4.70;;
51925;SDS011;37952;51.938;15.480;2023-11-22T13:09:03;7.80;;;6.80;;
51925;SDS011;37952;51.938;15.480;2023-11-22T13:12:05;8.50;;;7.60;;
51925;SDS011;37952;51.938;15.480;2023-11-22T13:15:08;7.70;;;7.00;;
51925;SDS011;37952;51.938;15.480;2023-11-22T13:18:13;7.20;;;6.20;;
51925;SDS011;37952;51.938;15.480;2023-11-22T13:21:14;6.70;;;6.00;;
51925;SDS011;37952;51.938;15.480;2023-11-22T13:24:16;4.40;;;3.80;;
51925;SDS011;37952;51.938;15.480;2023-11-22T13:27:23;5.40;;;5.00;;
51925;SDS011;37952;51.938;15.480;2023-11-22T13:30:27;6.00;;;5.50;;
51925;SDS011;37952;51.938;15.480;2023-11-22T13:33:28;5.50;;;5.00;;
51925;SDS011;37952;51.938;15.480;2023-11-22T13:36:30;5.60;;;5.20;;
51925;SDS011;37952;51.938;15.480;2023-11-22T13:39:33;5.60;;;5.20;;
51925;SDS011;37952;51.938;15.480;2023-11-22T13:42:35;4.00;;;3.80;;
51925;SDS011;37952;51.938;15.480;2023-11-22T13:45:36;4.60;;;4.20;;
51925;SDS011;37952;51.938;15.480;2023-11-22T13:48:41;5.10;;;4.70;;
51925;SDS011;37952;51.938;15.480;2023-11-22T13:51:42;5.90;;;5.30;;
51925;SDS011;37952;51.938;15.480;2023-11-22T13:54:44;5.40;;;5.00;;
51925;SDS011;37952;51.938;15.480;2023-11-22T13:57:46;6.00;;;5.50;;
51925;SDS011;37952;51.938;15.480;2023-11-22T14:00:47;5.80;;;5.40;;
51925;SDS011;37952;51.938;15.480;2023-11-22T14:03:50;4.60;;;4.30;;
51925;SDS011;37952;51.938;15.480;2023-11-22T14:06:53;4.70;;;4.40;;
51925;SDS011;37952;51.938;15.480;2023-11-22T14:09:55;3.80;;;3.50;;
51925;SDS011;37952;51.938;15.480;2023-11-22T14:12:56;5.90;;;5.50;;
51925;SDS011;37952;51.938;15.480;2023-11-22T14:16:01;5.90;;;5.50;;
51925;SDS011;37952;51.938;15.480;2023-11-22T14:19:04;6.00;;;5.30;;
51925;SDS011;37952;51.938;15.480;2023-11-22T14:22:07;5.70;;;5.20;;
51925;SDS011;37952;51.938;15.480;2023-11-22T14:25:09;5.40;;;5.00;;
51925;SDS011;37952;51.938;15.480;2023-11-22T14:28:15;3.40;;;3.10;;
51925;SDS011;37952;51.938;15.480;2023-11-22T14:31:16;7.00;;;5.60;;
51925;SDS011;37952;51.938;15.480;2023-11-22T14:34:20;5.70;;;5.20;;
51925;SDS011;37952;51.938;15.480;2023-11-22T14:37:21;5.50;;;5.00;;
51925;SDS011;37952;51.938;15.480;2023-11-22T14:40:23;2.90;;;2.80;;
51925;SDS011;37952;51.938;15.480;2023-11-22T14:43:25;7.20;;;6.60;;
51925;SDS011;37952;51.938;15.480;2023-11-22T14:46:27;5.30;;;4.90;;
51925;SDS011;37952;51.938;15.480;2023-11-22T14:49:28;5.80;;;4.70;;
51925;SDS011;37952;51.938;15.480;2023-11-22T14:52:36;13.30;;;8.30;;
51925;SDS011;37952;51.938;15.480;2023-11-22T14:55:37;8.00;;;7.20;;
51925;SDS011;37952;51.938;15.480;2023-11-22T14:58:42;7.80;;;7.10;;
51925;SDS011;37952;51.938;15.480;2023-11-22T15:01:43;8.20;;;7.10;;
51925;SDS011;37952;51.938;15.480;2023-11-22T15:04:47;7.70;;;6.90;;
51925;SDS011;37952;51.938;15.480;2023-11-22T15:07:49;6.10;;;5.60;;
51925;SDS011;37952;51.938;15.480;2023-11-22T15:10:55;6.40;;;5.60;;
51925;SDS011;37952;51.938;15.480;2023-11-22T15:13:58;7.70;;;6.20;;
51925;SDS011;37952;51.938;15.480;2023-11-22T15:17:00;10.50;;;6.00;;
51925;SDS011;37952;51.938;15.480;2023-11-22T15:20:04;7.60;;;6.90;;
51925;SDS011;37952;51.938;15.480;2023-11-22T15:23:17;8.20;;;7.40;;
51925;SDS011;37952;51.938;15.480;2023-11-22T15:26:23;8.40;;;6.50;;
51925;SDS011;37952;51.938;15.480;2023-11-22T15:29:25;8.80;;;7.10;;
51925;SDS011;37952;51.938;15.480;2023-11-22T15:32:27;5.70;;;5.20;;
51925;SDS011;37952;51.938;15.480;2023-11-22T15:35:29;10.70;;;8.20;;
51925;SDS011;37952;51.938;15.480;2023-11-22T15:38:30;9.30;;;8.10;;
51925;SDS011;37952;51.938;15.480;2023-11-22T15:41:32;7.50;;;6.80;;
51925;SDS011;37952;51.938;15.480;2023-11-22T15:44:34;7.30;;;6.50;;
51925;SDS011;37952;51.938;15.480;2023-11-22T15:47:38;10.10;;;7.70;;
51925;SDS011;37952;51.938;15.480;2023-11-22T15:50:44;14.80;;;9.60;;
51925;SDS011;37952;51.938;15.480;2023-11-22T15:56:53;11.70;;;8.80;;
51925;SDS011;37952;51.938;15.480;2023-11-22T15:59:55;15.00;;;10.70;;
51925;SDS011;37952;51.938;15.480;2023-11-22T16:02:57;8.70;;;7.50;;
51925;SDS011;37952;51.938;15.480;2023-11-22T16:06:00;10.60;;;8.70;;
51925;SDS011;37952;51.938;15.480;2023-11-22T16:09:04;10.90;;;8.10;;
51925;SDS011;37952;51.938;15.480;2023-11-22T16:12:10;11.40;;;7.80;;
51925;SDS011;37952;51.938;15.480;2023-11-22T16:15:12;10.40;;;8.70;;
51925;SDS011;37952;51.938;15.480;2023-11-22T16:18:14;14.10;;;10.30;;
51925;SDS011;37952;51.938;15.480;2023-11-22T16:21:20;10.70;;;8.80;;
51925;SDS011;37952;51.938;15.480;2023-11-22T16:24:23;12.90;;;9.30;;
51925;SDS011;37952;51.938;15.480;2023-11-22T16:27:26;17.20;;;10.50;;
51925;SDS011;37952;51.938;15.480;2023-11-22T16:30:28;17.50;;;10.00;;
51925;SDS011;37952;51.938;15.480;2023-11-22T16:33:29;16.70;;;11.20;;
51925;SDS011;37952;51.938;15.480;2023-11-22T16:36:34;9.80;;;8.50;;
51925;SDS011;37952;51.938;15.480;2023-11-22T16:39:35;11.60;;;9.80;;
51925;SDS011;37952;51.938;15.480;2023-11-22T16:42:37;16.10;;;11.40;;
51925;SDS011;37952;51.938;15.480;2023-11-22T16:45:41;16.00;;;12.00;;
51925;SDS011;37952;51.938;15.480;2023-11-22T16:48:47;18.60;;;12.20;;
51925;SDS011;37952;51.938;15.480;2023-11-22T16:51:49;17.90;;;12.90;;
51925;SDS011;37952;51.938;15.480;2023-11-22T16:54:51;16.00;;;10.80;;
51925;SDS011;37952;51.938;15.480;2023-11-22T16:57:53;15.00;;;11.20;;
51925;SDS011;37952;51.938;15.480;2023-11-22T17:00:54;16.60;;;12.90;;
51925;SDS011;37952;51.938;15.480;2023-11-22T17:03:58;25.20;;;13.10;;
51925;SDS011;37952;51.938;15.480;2023-11-22T17:07:00;22.50;;;14.60;;
51925;SDS011;37952;51.938;15.480;2023-11-22T17:10:01;22.30;;;14.80;;
51925;SDS011;37952;51.938;15.480;2023-11-22T17:13:03;9.10;;;8.20;;
51925;SDS011;37952;51.938;15.480;2023-11-22T17:16:04;18.70;;;13.40;;
51925;SDS011;37952;51.938;15.480;2023-11-22T17:19:06;25.20;;;16.20;;
51925;SDS011;37952;51.938;15.480;2023-11-22T17:22:08;27.70;;;15.10;;
51925;SDS011;37952;51.938;15.480;2023-11-22T17:25:09;23.00;;;16.10;;
51925;SDS011;37952;51.938;15.480;2023-11-22T17:28:14;20.80;;;12.80;;
51925;SDS011;37952;51.938;15.480;2023-11-22T17:31:16;19.80;;;14.20;;
51925;SDS011;37952;51.938;15.480;2023-11-22T17:34:18;30.60;;;16.60;;
51925;SDS011;37952;51.938;15.480;2023-11-22T17:37:21;33.90;;;17.90;;
51925;SDS011;37952;51.938;15.480;2023-11-22T17:40:23;24.30;;;15.70;;
51925;SDS011;37952;51.938;15.480;2023-11-22T17:43:25;19.20;;;13.50;;
51925;SDS011;37952;51.938;15.480;2023-11-22T17:46:27;20.60;;;12.00;;
51925;SDS011;37952;51.938;15.480;2023-11-22T17:49:31;28.80;;;15.10;;
51925;SDS011;37952;51.938;15.480;2023-11-22T17:52:32;27.20;;;15.50;;
51925;SDS011;37952;51.938;15.480;2023-11-22T17:55:35;31.50;;;17.30;;
51925;SDS011;37952;51.938;15.480;2023-11-22T17:58:39;28.20;;;15.70;;
51925;SDS011;37952;51.938;15.480;2023-11-22T18:01:42;27.40;;;16.00;;
51925;SDS011;37952;51.938;15.480;2023-11-22T18:04:43;27.00;;;15.50;;
51925;SDS011;37952;51.938;15.480;2023-11-22T18:07:45;42.30;;;20.40;;
51925;SDS011;37952;51.938;15.480;2023-11-22T18:10:46;32.40;;;14.20;;
51925;SDS011;37952;51.938;15.480;2023-11-22T18:13:50;32.30;;;17.50;;
51925;SDS011;37952;51.938;15.480;2023-11-22T18:16:52;29.30;;;16.60;;
51925;SDS011;37952;51.938;15.480;2023-11-22T18:23:02;34.30;;;17.50;;